createdAt,value
2023-03-16T00:00:32.931Z,1.80
2023-03-16T00:01:32.905Z,1.40
2023-03-16T00:02:32.880Z,1.50
2023-03-16T00:03:32.908Z,1.90
2023-03-16T00:04:32.856Z,1.80
2023-03-16T00:05:32.840Z,1.70
2023-03-16T00:06:33.001Z,1.90
2023-03-16T00:07:32.820Z,1.60
2023-03-16T00:08:32.806Z,1.60
2023-03-16T00:09:32.795Z,1.50
2023-03-16T00:10:32.771Z,1.80
2023-03-16T00:11:32.781Z,1.60
2023-03-16T00:12:32.750Z,1.70
2023-03-16T00:13:32.737Z,1.80
2023-03-16T00:14:32.729Z,1.80
2023-03-16T00:15:32.710Z,1.80
2023-03-16T00:16:32.922Z,1.80
2023-03-16T00:17:32.693Z,1.60
2023-03-16T00:18:32.670Z,2.10
2023-03-16T00:19:32.670Z,1.70
2023-03-16T00:20:32.647Z,1.70
2023-03-16T00:21:32.820Z,1.60
2023-03-16T00:22:32.624Z,1.60
2023-03-16T00:23:32.618Z,1.60
2023-03-16T00:24:32.599Z,1.80
2023-03-16T00:25:32.590Z,1.80
2023-03-16T00:26:32.613Z,1.70
2023-03-16T00:27:32.572Z,1.80
2023-03-16T00:28:32.546Z,1.80
2023-03-16T00:29:32.537Z,1.90
2023-03-16T00:30:32.515Z,1.80
2023-03-16T00:31:32.536Z,2.20
2023-03-16T00:32:32.690Z,2.00
2023-03-16T00:33:32.499Z,1.80
2023-03-16T00:34:32.470Z,2.00
2023-03-16T00:35:32.504Z,2.00
2023-03-16T00:36:32.440Z,2.10
2023-03-16T00:37:32.451Z,1.90
2023-03-16T00:38:32.605Z,1.80
2023-03-16T00:39:32.589Z,1.90
2023-03-16T00:40:32.388Z,1.80
2023-03-16T00:41:32.380Z,1.80
2023-03-16T00:42:32.359Z,2.00
2023-03-16T00:43:32.377Z,2.10
2023-03-16T00:44:32.350Z,3.30
2023-03-16T00:45:32.365Z,1.90
2023-03-16T00:46:32.320Z,2.00
2023-03-16T00:47:32.303Z,2.00
2023-03-16T00:48:32.292Z,1.90
2023-03-16T00:49:32.464Z,2.10
2023-03-16T00:50:32.253Z,1.60
2023-03-16T00:51:32.255Z,2.00
2023-03-16T00:52:32.241Z,1.90
2023-03-16T00:53:32.232Z,1.80
2023-03-16T00:54:32.232Z,2.00
2023-03-16T00:55:32.211Z,1.90
2023-03-16T00:56:32.192Z,1.90
2023-03-16T00:57:32.210Z,1.70
2023-03-16T00:58:32.172Z,1.80
2023-03-16T00:59:32.168Z,1.70
2023-03-16T01:00:32.319Z,2.00
2023-03-16T01:01:32.134Z,1.80
2023-03-16T01:02:32.111Z,2.00
2023-03-16T01:03:32.183Z,2.00
2023-03-16T01:04:32.093Z,1.80
2023-03-16T01:05:32.102Z,1.90
2023-03-16T01:06:32.059Z,1.90
2023-03-16T01:07:32.052Z,1.80
2023-03-16T01:08:32.219Z,2.00
2023-03-16T01:09:32.030Z,2.40
2023-03-16T01:10:32.011Z,1.90
2023-03-16T01:11:32.010Z,2.20
2023-03-16T01:12:31.987Z,1.80
2023-03-16T01:13:32.160Z,2.20
2023-03-16T01:14:31.965Z,1.90
2023-03-16T01:15:31.968Z,2.30
2023-03-16T01:16:32.001Z,2.30
2023-03-16T01:17:31.932Z,1.90
2023-03-16T01:18:32.097Z,2.10
2023-03-16T01:19:31.944Z,2.10
2023-03-16T01:20:32.066Z,2.10
2023-03-16T01:21:31.880Z,2.10
2023-03-16T01:22:31.855Z,1.90
2023-03-16T01:23:31.858Z,2.10
2023-03-16T01:24:31.855Z,2.10
2023-03-16T01:25:32.007Z,2.10
2023-03-16T01:26:31.817Z,2.30
2023-03-16T01:27:31.808Z,1.80
2023-03-16T01:28:31.794Z,2.10
2023-03-16T01:29:31.786Z,2.20
2023-03-16T01:30:31.986Z,1.90
2023-03-16T01:31:31.752Z,1.80
2023-03-16T01:32:31.791Z,2.10
2023-03-16T01:33:31.724Z,1.90
2023-03-16T01:34:31.715Z,1.60
2023-03-16T01:35:31.784Z,1.70
2023-03-16T01:36:31.690Z,1.80
2023-03-16T01:37:31.692Z,2.00
2023-03-16T01:38:31.666Z,2.00
2023-03-16T01:39:31.662Z,2.00
2023-03-16T01:40:31.805Z,1.90
2023-03-16T01:41:31.645Z,1.70
2023-03-16T01:42:31.620Z,2.20
2023-03-16T01:43:31.600Z,1.90
2023-03-16T01:44:31.587Z,1.90
2023-03-16T01:45:31.601Z,2.00
2023-03-16T01:46:31.598Z,1.90
2023-03-16T01:47:31.733Z,1.90
2023-03-16T01:48:31.791Z,1.80
2023-03-16T01:49:31.528Z,1.90
2023-03-16T01:50:31.567Z,1.50
2023-03-16T01:51:31.520Z,1.90
2023-03-16T01:52:31.669Z,1.50
2023-03-16T01:53:31.507Z,1.80
2023-03-16T01:54:31.496Z,2.20
2023-03-16T01:55:31.502Z,1.80
2023-03-16T01:56:31.437Z,2.00
2023-03-16T01:57:31.468Z,2.10
2023-03-16T01:58:31.418Z,1.80
2023-03-16T01:59:31.608Z,1.70
2023-03-16T02:00:31.405Z,1.80
2023-03-16T02:01:31.391Z,1.90
2023-03-16T02:02:31.368Z,1.90
2023-03-16T02:03:31.740Z,1.80
2023-03-16T02:04:31.433Z,2.10
2023-03-16T02:05:31.328Z,1.70
2023-03-16T02:06:31.310Z,1.60
2023-03-16T02:07:31.311Z,1.70
2023-03-16T02:08:31.470Z,1.60
2023-03-16T02:09:31.286Z,1.70
2023-03-16T02:10:31.255Z,1.70
2023-03-16T02:11:31.257Z,1.90
2023-03-16T02:12:31.234Z,1.70
2023-03-16T02:13:31.415Z,2.00
2023-03-16T02:14:31.238Z,1.60
2023-03-16T02:15:31.245Z,1.70
2023-03-16T02:16:31.186Z,1.50
2023-03-16T02:17:31.205Z,1.40
2023-03-16T02:18:31.163Z,2.10
2023-03-16T02:19:31.332Z,1.60
2023-03-16T02:20:31.135Z,1.60
2023-03-16T02:21:31.128Z,1.80
2023-03-16T02:22:31.123Z,1.80
2023-03-16T02:23:31.103Z,1.80
2023-03-16T02:24:31.092Z,1.70
2023-03-16T02:25:31.252Z,1.70
2023-03-16T02:26:31.068Z,1.60
2023-03-16T02:27:31.065Z,1.90
2023-03-16T02:28:31.047Z,2.00
2023-03-16T02:29:31.031Z,1.40
2023-03-16T02:30:31.010Z,1.40
2023-03-16T02:31:31.273Z,1.50
2023-03-16T02:32:31.008Z,1.60
2023-03-16T02:33:30.980Z,1.70
2023-03-16T02:34:30.951Z,1.60
2023-03-16T02:35:30.996Z,1.60
2023-03-16T02:36:30.942Z,1.50
2023-03-16T02:37:31.098Z,1.40
2023-03-16T02:38:30.903Z,1.70
2023-03-16T02:39:30.913Z,1.60
2023-03-16T02:40:31.099Z,1.50
2023-03-16T02:41:30.889Z,1.60
2023-03-16T02:42:30.860Z,1.70
2023-03-16T02:43:30.986Z,1.50
2023-03-16T02:44:30.841Z,1.60
2023-03-16T02:45:30.817Z,1.60
2023-03-16T02:46:30.833Z,1.60
2023-03-16T02:47:30.797Z,2.00
2023-03-16T02:48:30.801Z,1.70
2023-03-16T02:49:30.764Z,1.40
2023-03-16T02:50:30.759Z,1.70
2023-03-16T02:51:30.744Z,1.70
2023-03-16T02:52:30.743Z,1.60
2023-03-16T02:53:30.722Z,1.60
2023-03-16T02:54:30.874Z,1.40
2023-03-16T02:55:30.684Z,1.50
2023-03-16T02:56:30.677Z,1.70
2023-03-16T02:57:30.675Z,1.40
2023-03-16T02:58:30.665Z,1.60
2023-03-16T02:59:30.646Z,1.50
2023-03-16T03:00:30.794Z,1.60
2023-03-16T03:01:30.613Z,1.50
2023-03-16T03:02:30.603Z,1.30
2023-03-16T03:03:30.665Z,1.60
2023-03-16T03:04:30.573Z,1.90
2023-03-16T03:05:30.591Z,1.40
2023-03-16T03:06:30.551Z,1.50
2023-03-16T03:07:30.540Z,1.50
2023-03-16T03:08:30.524Z,1.80
2023-03-16T03:09:30.521Z,1.70
2023-03-16T03:10:30.676Z,1.60
2023-03-16T03:11:30.505Z,1.30
2023-03-16T03:12:30.479Z,1.20
2023-03-16T03:13:30.469Z,1.20
2023-03-16T03:14:30.439Z,1.40
2023-03-16T03:15:30.441Z,1.50
2023-03-16T03:16:30.666Z,1.80
2023-03-16T03:17:30.577Z,1.70
2023-03-16T03:18:30.397Z,1.30
2023-03-16T03:19:30.381Z,1.60
2023-03-16T03:20:30.741Z,1.50
2023-03-16T03:21:30.370Z,1.70
2023-03-16T03:22:30.519Z,1.70
2023-03-16T03:23:30.339Z,1.70
2023-03-16T03:24:30.318Z,1.80
2023-03-16T03:25:30.319Z,1.80
2023-03-16T03:26:30.296Z,1.50
2023-03-16T03:27:30.350Z,1.20
2023-03-16T03:28:30.270Z,1.50
2023-03-16T03:29:30.266Z,1.40
2023-03-16T03:30:30.302Z,1.50
2023-03-16T03:31:30.272Z,1.60
2023-03-16T03:32:30.439Z,1.50
2023-03-16T03:33:30.227Z,1.40
2023-03-16T03:34:30.195Z,1.30
2023-03-16T03:35:30.259Z,1.40
2023-03-16T03:36:30.168Z,1.90
2023-03-16T03:37:30.335Z,1.50
2023-03-16T03:38:30.145Z,1.60
2023-03-16T03:39:30.134Z,1.60
2023-03-16T03:40:30.470Z,1.70
2023-03-16T03:41:30.129Z,1.80
2023-03-16T03:42:30.285Z,1.50
2023-03-16T03:43:30.100Z,1.60
2023-03-16T03:44:30.063Z,1.50
2023-03-16T03:45:30.083Z,1.60
2023-03-16T03:46:30.199Z,1.20
2023-03-16T03:47:30.033Z,1.60
2023-03-16T03:48:30.206Z,1.60
2023-03-16T03:49:30.004Z,1.30
2023-03-16T03:50:30.449Z,1.70
2023-03-16T03:51:30.167Z,1.50
2023-03-16T03:52:29.969Z,1.60
2023-03-16T03:53:29.951Z,1.40
2023-03-16T03:54:29.950Z,1.50
2023-03-16T03:55:30.105Z,1.20
2023-03-16T03:56:29.921Z,1.60
2023-03-16T03:57:29.922Z,1.60
2023-03-16T03:58:29.903Z,1.50
2023-03-16T03:59:30.049Z,1.90
2023-03-16T04:00:30.061Z,1.40
2023-03-16T04:01:29.848Z,1.60
2023-03-16T04:02:29.990Z,1.20
2023-03-16T04:03:29.919Z,1.50
2023-03-16T04:04:29.997Z,1.30
2023-03-16T04:05:29.796Z,1.50
2023-03-16T04:06:29.825Z,1.30
2023-03-16T04:07:29.785Z,1.40
2023-03-16T04:08:29.947Z,1.60
2023-03-16T04:09:29.755Z,1.70
2023-03-16T04:10:30.362Z,1.70
2023-03-16T04:11:29.732Z,1.40
2023-03-16T04:12:29.714Z,1.30
2023-03-16T04:13:29.708Z,1.40
2023-03-16T04:14:29.694Z,1.60
2023-03-16T04:15:29.884Z,1.20
2023-03-16T04:16:29.748Z,1.70
2023-03-16T04:17:29.669Z,1.40
2023-03-16T04:18:29.814Z,1.60
2023-03-16T04:19:29.613Z,1.30
2023-03-16T04:20:29.891Z,1.60
2023-03-16T04:21:29.606Z,1.50
2023-03-16T04:22:29.586Z,1.40
2023-03-16T04:23:29.751Z,1.30
2023-03-16T04:24:29.576Z,1.50
2023-03-16T04:25:29.541Z,1.40
2023-03-16T04:26:29.541Z,1.30
2023-03-16T04:27:29.530Z,1.40
2023-03-16T04:28:29.690Z,1.40
2023-03-16T04:29:29.490Z,1.30
2023-03-16T04:30:30.017Z,1.50
2023-03-16T04:31:29.470Z,1.40
2023-03-16T04:32:29.474Z,1.40
2023-03-16T04:33:29.620Z,1.50
2023-03-16T04:34:29.618Z,1.40
2023-03-16T04:35:29.420Z,1.40
2023-03-16T04:36:29.600Z,1.40
2023-03-16T04:37:29.401Z,1.30
2023-03-16T04:38:29.387Z,1.40
2023-03-16T04:39:29.379Z,1.40
2023-03-16T04:40:29.821Z,1.40
2023-03-16T04:41:29.369Z,1.50
2023-03-16T04:42:29.338Z,1.40
2023-03-16T04:43:29.318Z,1.40
2023-03-16T04:44:29.318Z,1.40
2023-03-16T04:45:29.297Z,1.30
2023-03-16T04:46:29.585Z,1.40
2023-03-16T04:47:29.269Z,1.40
2023-03-16T04:48:29.260Z,1.60
2023-03-16T04:49:29.257Z,1.50
2023-03-16T04:50:29.605Z,1.40
2023-03-16T04:51:29.406Z,2.00
2023-03-16T04:52:29.376Z,1.40
2023-03-16T04:53:29.197Z,1.60
2023-03-16T04:54:29.189Z,1.60
2023-03-16T04:55:29.466Z,1.60
2023-03-16T04:56:29.162Z,1.50
2023-03-16T04:57:29.324Z,1.80
2023-03-16T04:58:29.316Z,1.80
2023-03-16T04:59:29.124Z,1.90
2023-03-16T05:00:29.471Z,1.60
2023-03-16T05:01:29.140Z,1.80
2023-03-16T05:02:29.274Z,1.60
2023-03-16T05:03:29.070Z,1.70
2023-03-16T05:04:29.312Z,1.70
2023-03-16T05:05:29.098Z,1.70
2023-03-16T05:06:29.033Z,1.70
2023-03-16T05:07:29.183Z,1.60
2023-03-16T05:08:29.003Z,1.50
2023-03-16T05:09:28.993Z,2.00
2023-03-16T05:10:29.314Z,1.90
2023-03-16T05:11:28.961Z,1.80
2023-03-16T05:12:29.144Z,1.90
2023-03-16T05:13:28.942Z,1.80
2023-03-16T05:14:29.136Z,1.90
2023-03-16T05:15:28.934Z,1.90
2023-03-16T05:16:28.949Z,1.70
2023-03-16T05:17:28.891Z,2.10
2023-03-16T05:18:28.881Z,1.90
2023-03-16T05:19:28.861Z,1.90
2023-03-16T05:20:29.169Z,1.70
2023-03-16T05:21:29.020Z,2.00
2023-03-16T05:22:28.828Z,1.80
2023-03-16T05:23:28.807Z,1.80
2023-03-16T05:24:28.798Z,2.10
2023-03-16T05:25:28.776Z,1.70
2023-03-16T05:26:28.809Z,2.20
2023-03-16T05:27:28.757Z,1.90
2023-03-16T05:28:28.748Z,2.00
2023-03-16T05:29:28.727Z,1.80
2023-03-16T05:30:29.039Z,1.90
2023-03-16T05:31:28.939Z,1.70
2023-03-16T05:32:28.729Z,2.10
2023-03-16T05:33:28.678Z,2.40
2023-03-16T05:34:28.682Z,1.90
2023-03-16T05:35:28.719Z,2.20
2023-03-16T05:36:28.836Z,2.40
2023-03-16T05:37:28.638Z,1.80
2023-03-16T05:38:28.625Z,1.90
2023-03-16T05:39:28.617Z,2.10
2023-03-16T05:40:28.911Z,2.00
2023-03-16T05:41:28.597Z,2.30
2023-03-16T05:42:28.745Z,2.10
2023-03-16T05:43:28.565Z,2.20
2023-03-16T05:44:28.546Z,2.30
2023-03-16T05:45:28.536Z,2.10
2023-03-16T05:46:28.559Z,1.90
2023-03-16T05:47:28.686Z,2.20
2023-03-16T05:48:28.492Z,2.00
2023-03-16T05:49:28.487Z,2.10
2023-03-16T05:50:28.629Z,2.30
2023-03-16T05:51:28.494Z,2.00
2023-03-16T05:52:28.623Z,2.20
2023-03-16T05:53:28.459Z,1.70
2023-03-16T05:54:28.430Z,2.20
2023-03-16T05:55:28.421Z,1.90
2023-03-16T05:56:28.418Z,2.40
2023-03-16T05:57:28.389Z,2.10
2023-03-16T05:58:28.548Z,2.00
2023-03-16T05:59:28.550Z,2.10
2023-03-16T06:00:28.535Z,2.00
2023-03-16T06:01:28.342Z,2.20
2023-03-16T06:02:28.523Z,2.40
2023-03-16T06:03:28.312Z,2.30
2023-03-16T06:04:28.390Z,1.90
2023-03-16T06:05:28.302Z,2.00
2023-03-16T06:06:28.277Z,2.30
2023-03-16T06:07:29.243Z,2.40
2023-03-16T06:08:28.247Z,2.30
2023-03-16T06:09:28.234Z,2.50
2023-03-16T06:10:28.365Z,2.40
2023-03-16T06:11:28.382Z,2.30
2023-03-16T06:12:28.192Z,2.20
2023-03-16T06:13:28.198Z,2.00
2023-03-16T06:14:28.158Z,2.10
2023-03-16T06:15:28.160Z,2.10
2023-03-16T06:16:28.180Z,2.60
2023-03-16T06:17:28.145Z,2.40
2023-03-16T06:18:28.128Z,1.90
2023-03-16T06:19:28.108Z,2.30
2023-03-16T06:20:28.182Z,2.00
2023-03-16T06:21:28.089Z,2.60
2023-03-16T06:22:28.243Z,2.20
2023-03-16T06:23:28.057Z,2.20
2023-03-16T06:24:28.028Z,2.60
2023-03-16T06:25:28.037Z,2.50
2023-03-16T06:26:28.021Z,2.30
2023-03-16T06:27:28.016Z,2.50
2023-03-16T06:28:27.987Z,2.20
2023-03-16T06:29:28.094Z,2.30
2023-03-16T06:30:28.166Z,2.20
2023-03-16T06:31:27.989Z,2.30
2023-03-16T06:32:27.946Z,2.10
2023-03-16T06:33:27.947Z,2.40
2023-03-16T06:34:27.904Z,1.80
2023-03-16T06:35:27.895Z,2.20
2023-03-16T06:36:27.893Z,2.10
2023-03-16T06:37:27.874Z,2.50
2023-03-16T06:38:27.865Z,2.00
2023-03-16T06:39:27.844Z,2.10
2023-03-16T06:40:28.022Z,2.10
2023-03-16T06:41:27.828Z,2.20
2023-03-16T06:42:27.841Z,2.60
2023-03-16T06:43:27.984Z,2.00
2023-03-16T06:44:27.782Z,2.10
2023-03-16T06:45:27.772Z,2.10
2023-03-16T06:46:27.763Z,2.00
2023-03-16T06:47:27.759Z,2.10
2023-03-16T06:48:27.923Z,2.20
2023-03-16T06:49:27.721Z,2.30
2023-03-16T06:50:27.866Z,1.80
2023-03-16T06:51:27.694Z,2.30
2023-03-16T06:52:27.682Z,2.30
2023-03-16T06:53:27.684Z,2.10
2023-03-16T06:54:27.831Z,1.90
2023-03-16T06:55:27.832Z,2.20
2023-03-16T06:56:27.644Z,1.90
2023-03-16T06:57:27.631Z,2.20
2023-03-16T06:58:27.602Z,2.00
2023-03-16T06:59:27.601Z,2.10
2023-03-16T07:00:27.993Z,2.30
2023-03-16T07:01:27.645Z,1.90
2023-03-16T07:02:27.555Z,2.00
2023-03-16T07:03:27.550Z,2.00
2023-03-16T07:04:27.708Z,1.80
2023-03-16T07:05:27.525Z,2.00
2023-03-16T07:06:27.504Z,2.20
2023-03-16T07:07:27.497Z,2.20
2023-03-16T07:08:27.474Z,2.20
2023-03-16T07:09:27.477Z,2.20
2023-03-16T07:10:27.860Z,2.10
2023-03-16T07:11:27.445Z,2.50
2023-03-16T07:12:27.425Z,2.00
2023-03-16T07:13:27.404Z,1.90
2023-03-16T07:14:27.585Z,2.10
2023-03-16T07:15:27.386Z,2.00
2023-03-16T07:16:27.489Z,2.10
2023-03-16T07:17:27.381Z,1.90
2023-03-16T07:18:27.352Z,2.10
2023-03-16T07:19:27.364Z,1.90
2023-03-16T07:20:27.595Z,2.10
2023-03-16T07:21:27.309Z,2.40
2023-03-16T07:22:27.324Z,2.10
2023-03-16T07:23:27.297Z,1.70
2023-03-16T07:24:27.271Z,2.40
2023-03-16T07:25:27.429Z,2.20
2023-03-16T07:26:27.249Z,2.00
2023-03-16T07:27:27.228Z,2.40
2023-03-16T07:28:27.240Z,2.00
2023-03-16T07:29:27.207Z,2.20
2023-03-16T07:30:27.477Z,1.90
2023-03-16T07:31:27.216Z,1.90
2023-03-16T07:32:27.203Z,2.00
2023-03-16T07:33:27.164Z,1.90
2023-03-16T07:34:27.157Z,1.80
2023-03-16T07:35:27.325Z,2.00
2023-03-16T07:36:27.296Z,1.90
2023-03-16T07:37:27.108Z,2.30
2023-03-16T07:38:27.124Z,2.30
2023-03-16T07:39:27.078Z,2.10
2023-03-16T07:40:27.393Z,2.10
2023-03-16T07:41:27.255Z,2.00
2023-03-16T07:42:27.053Z,2.00
2023-03-16T07:43:27.042Z,2.10
2023-03-16T07:44:27.023Z,2.30
2023-03-16T07:45:27.420Z,2.10
2023-03-16T07:46:27.280Z,2.20
2023-03-16T07:47:26.994Z,2.00
2023-03-16T07:48:26.996Z,2.00
2023-03-16T07:49:26.950Z,2.00
2023-03-16T07:50:27.168Z,2.30
2023-03-16T07:51:26.923Z,2.00
2023-03-16T07:52:26.912Z,2.30
2023-03-16T07:53:27.088Z,1.80
2023-03-16T07:54:26.890Z,2.00
2023-03-16T07:55:26.868Z,2.20
2023-03-16T07:56:29.689Z,2.20
2023-03-16T07:57:26.850Z,1.90
2023-03-16T07:58:27.011Z,2.00
2023-03-16T07:59:26.819Z,1.60
2023-03-16T08:00:27.223Z,1.90
2023-03-16T08:01:26.800Z,2.30
2023-03-16T08:02:26.833Z,2.20
2023-03-16T08:03:26.989Z,2.10
2023-03-16T08:04:26.757Z,2.00
2023-03-16T08:05:27.929Z,1.90
2023-03-16T08:06:26.736Z,1.80
2023-03-16T08:07:26.710Z,2.00
2023-03-16T08:08:26.879Z,2.10
2023-03-16T08:09:26.694Z,2.20
2023-03-16T08:10:27.263Z,1.80
2023-03-16T08:11:26.690Z,2.30
2023-03-16T08:12:26.742Z,2.10
2023-03-16T08:13:26.637Z,2.80
2023-03-16T08:14:26.635Z,2.20
2023-03-16T08:15:26.816Z,2.10
2023-03-16T08:16:26.874Z,2.50
2023-03-16T08:17:26.588Z,2.00
2023-03-16T08:18:26.707Z,2.30
2023-03-16T08:19:26.561Z,1.90
2023-03-16T08:20:26.603Z,2.10
2023-03-16T08:21:26.776Z,2.00
2023-03-16T08:22:26.536Z,2.30
2023-03-16T08:23:26.531Z,2.10
2023-03-16T08:24:26.506Z,2.10
2023-03-16T08:25:26.502Z,2.00
2023-03-16T08:26:26.707Z,2.00
2023-03-16T08:27:26.462Z,2.20
2023-03-16T08:28:26.454Z,2.00
2023-03-16T08:29:26.434Z,1.70
2023-03-16T08:30:26.715Z,2.00
2023-03-16T08:31:26.603Z,1.90
2023-03-16T08:32:26.601Z,1.90
2023-03-16T08:33:26.403Z,2.00
2023-03-16T08:34:26.379Z,2.10
2023-03-16T08:35:26.384Z,2.10
2023-03-16T08:36:26.366Z,1.80
2023-03-16T08:37:26.515Z,2.20
2023-03-16T08:38:26.331Z,2.20
2023-03-16T08:39:26.304Z,2.30
2023-03-16T08:40:26.397Z,2.00
2023-03-16T08:41:27.226Z,2.00
2023-03-16T08:42:26.462Z,2.10
2023-03-16T08:43:26.267Z,3.00
2023-03-16T08:44:26.253Z,2.40
2023-03-16T08:45:26.244Z,2.30
2023-03-16T08:46:26.247Z,2.00
2023-03-16T08:47:26.412Z,2.40
2023-03-16T08:48:26.202Z,2.00
2023-03-16T08:49:26.191Z,2.30
2023-03-16T08:50:26.283Z,2.20
2023-03-16T08:51:26.155Z,2.10
2023-03-16T08:52:26.329Z,2.40
2023-03-16T08:53:26.133Z,2.20
2023-03-16T08:54:26.118Z,2.10
2023-03-16T08:55:26.109Z,2.00
2023-03-16T08:56:26.143Z,2.00
2023-03-16T08:57:26.262Z,2.40
2023-03-16T08:58:26.056Z,2.30
2023-03-16T08:59:30.120Z,2.30
2023-03-16T09:00:26.232Z,2.30
2023-03-16T09:01:26.240Z,2.20
2023-03-16T09:02:26.006Z,2.20
2023-03-16T09:03:26.004Z,2.30
2023-03-16T09:04:26.052Z,2.10
2023-03-16T09:05:25.979Z,2.00
2023-03-16T09:06:26.135Z,2.10
2023-03-16T09:07:25.945Z,2.10
2023-03-16T09:08:25.925Z,2.20
2023-03-16T09:09:25.924Z,2.20
2023-03-16T09:10:26.078Z,2.40
2023-03-16T09:11:25.904Z,2.20
2023-03-16T09:12:26.052Z,2.10
2023-03-16T09:13:26.044Z,2.30
2023-03-16T09:14:25.852Z,2.40
2023-03-16T09:15:25.842Z,2.30
2023-03-16T09:16:26.004Z,2.70
2023-03-16T09:17:26.001Z,2.30
2023-03-16T09:18:25.812Z,2.50
2023-03-16T09:19:25.816Z,2.60
2023-03-16T09:20:29.900Z,2.30
2023-03-16T09:21:25.781Z,2.60
2023-03-16T09:22:25.766Z,2.60
2023-03-16T09:23:25.942Z,2.50
2023-03-16T09:24:25.728Z,2.80
2023-03-16T09:25:25.718Z,2.40
2023-03-16T09:26:25.739Z,2.50
2023-03-16T09:27:25.688Z,2.40
2023-03-16T09:28:25.849Z,2.70
2023-03-16T09:29:25.668Z,2.40
2023-03-16T09:30:25.658Z,2.50
2023-03-16T09:31:25.672Z,2.50
2023-03-16T09:32:25.723Z,2.60
2023-03-16T09:33:25.807Z,2.30
2023-03-16T09:35:25.605Z,2.80
2023-03-16T09:36:25.570Z,2.70
2023-03-16T09:37:25.558Z,2.80
2023-03-16T09:38:25.550Z,2.90
2023-03-16T09:39:25.529Z,2.70
2023-03-16T09:40:25.541Z,2.50
2023-03-16T09:41:25.507Z,2.70
2023-03-16T09:42:25.490Z,2.50
2023-03-16T09:43:25.489Z,2.60
2023-03-16T09:44:25.467Z,2.80
2023-03-16T09:45:25.496Z,2.60
2023-03-16T09:46:25.465Z,2.60
2023-03-16T09:47:25.439Z,2.80
2023-03-16T09:48:25.430Z,2.70
2023-03-16T09:49:25.409Z,2.60
2023-03-16T09:50:28.138Z,2.40
2023-03-16T09:51:25.593Z,2.70
2023-03-16T09:52:25.373Z,2.70
2023-03-16T09:53:25.357Z,2.50
2023-03-16T09:54:25.335Z,2.80
2023-03-16T09:55:25.344Z,2.80
2023-03-16T09:56:25.496Z,2.30
2023-03-16T09:57:25.321Z,2.40
2023-03-16T09:58:25.309Z,2.50
2023-03-16T09:59:25.282Z,2.40
2023-03-16T10:00:25.264Z,2.50
2023-03-16T10:01:25.557Z,2.70
2023-03-16T10:02:25.224Z,2.50
2023-03-16T10:03:25.227Z,2.60
2023-03-16T10:04:25.210Z,2.60
2023-03-16T10:05:25.203Z,2.50
2023-03-16T10:06:25.383Z,2.70
2023-03-16T10:07:25.174Z,2.30
2023-03-16T10:08:25.155Z,2.50
2023-03-16T10:09:25.151Z,2.30
2023-03-16T10:10:25.130Z,2.10
2023-03-16T10:11:25.130Z,2.60
2023-03-16T10:12:25.282Z,2.60
2023-03-16T10:13:25.101Z,3.00
2023-03-16T10:14:25.082Z,2.40
2023-03-16T10:15:25.069Z,2.20
2023-03-16T10:16:25.082Z,2.30
2023-03-16T10:17:25.226Z,2.40
2023-03-16T10:18:25.220Z,2.40
2023-03-16T10:19:25.029Z,2.30
2023-03-16T10:20:24.997Z,2.30
2023-03-16T10:21:25.187Z,2.50
2023-03-16T10:22:24.967Z,2.10
2023-03-16T10:23:24.986Z,2.60
2023-03-16T10:24:24.959Z,2.60
2023-03-16T10:25:24.937Z,2.20
2023-03-16T10:26:24.916Z,2.30
2023-03-16T10:27:24.917Z,2.30
2023-03-16T10:28:25.065Z,2.60
2023-03-16T10:29:24.906Z,2.20
2023-03-16T10:30:24.889Z,2.50
2023-03-16T10:31:24.905Z,2.40
2023-03-16T10:32:24.894Z,2.40
2023-03-16T10:33:25.025Z,2.30
2023-03-16T10:34:24.897Z,2.40
2023-03-16T10:35:24.824Z,2.00
2023-03-16T10:36:24.863Z,2.40
2023-03-16T10:37:24.798Z,2.30
2023-03-16T10:38:24.765Z,2.20
2023-03-16T10:39:24.946Z,2.20
2023-03-16T10:40:24.752Z,2.50
2023-03-16T10:41:24.765Z,2.00
2023-03-16T10:42:24.733Z,2.10
2023-03-16T10:43:24.791Z,2.30
2023-03-16T10:44:24.893Z,2.30
2023-03-16T10:45:24.681Z,2.20
2023-03-16T10:46:24.812Z,2.50
2023-03-16T10:47:24.778Z,2.30
2023-03-16T10:48:24.645Z,2.40
2023-03-16T10:49:24.814Z,2.30
2023-03-16T10:50:24.648Z,2.30
2023-03-16T10:51:24.608Z,2.20
2023-03-16T10:52:24.592Z,2.20
2023-03-16T10:53:24.576Z,2.00
2023-03-16T10:54:24.745Z,2.10
2023-03-16T10:55:24.573Z,2.10
2023-03-16T10:56:24.728Z,2.30
2023-03-16T10:57:24.537Z,2.20
2023-03-16T10:58:24.516Z,2.20
2023-03-16T10:59:24.507Z,2.30
2023-03-16T11:00:24.504Z,2.10
2023-03-16T11:01:24.672Z,2.20
2023-03-16T11:02:24.646Z,2.10
2023-03-16T11:03:24.458Z,2.00
2023-03-16T11:04:24.487Z,2.10
2023-03-16T11:05:24.514Z,2.00
2023-03-16T11:06:24.489Z,1.70
2023-03-16T11:07:24.780Z,2.00
2023-03-16T11:08:24.454Z,2.10
2023-03-16T11:09:24.465Z,2.00
2023-03-16T11:10:24.368Z,2.00
2023-03-16T11:11:24.363Z,1.80
2023-03-16T11:12:24.516Z,1.90
2023-03-16T11:13:24.326Z,2.20
2023-03-16T11:14:24.311Z,2.00
2023-03-16T11:15:26.072Z,1.90
2023-03-16T11:16:24.322Z,2.20
2023-03-16T11:17:24.464Z,1.80
2023-03-16T11:18:24.278Z,2.00
2023-03-16T11:19:24.257Z,2.00
2023-03-16T11:20:24.238Z,2.30
2023-03-16T11:21:24.226Z,2.30
2023-03-16T11:22:24.549Z,1.80
2023-03-16T11:23:24.200Z,2.60
2023-03-16T11:24:24.206Z,2.30
2023-03-16T11:25:24.182Z,3.00
2023-03-16T11:26:24.174Z,2.10
2023-03-16T11:27:24.324Z,1.90
2023-03-16T11:28:24.134Z,1.50
2023-03-16T11:29:24.122Z,2.00
2023-03-16T11:30:24.109Z,1.80
2023-03-16T11:31:24.152Z,1.70
2023-03-16T11:32:24.174Z,1.50
2023-03-16T11:33:24.244Z,1.70
2023-03-16T11:34:24.069Z,2.00
2023-03-16T11:35:24.044Z,1.60
2023-03-16T11:36:24.081Z,1.70
2023-03-16T11:37:24.023Z,1.50
2023-03-16T11:38:24.193Z,2.50
2023-03-16T11:39:24.000Z,1.60
2023-03-16T11:40:23.984Z,1.30
2023-03-16T11:41:23.967Z,1.90
2023-03-16T11:42:23.963Z,1.90
2023-03-16T11:43:24.131Z,2.00
2023-03-16T11:44:24.047Z,1.50
2023-03-16T11:45:23.926Z,1.30
2023-03-16T11:46:24.006Z,1.90
2023-03-16T11:47:23.965Z,1.50
2023-03-16T11:48:23.896Z,1.70
2023-03-16T11:49:23.882Z,1.50
2023-03-16T11:50:23.857Z,1.30
2023-03-16T11:51:23.844Z,1.70
2023-03-16T11:52:23.828Z,1.40
2023-03-16T11:53:23.806Z,1.60
2023-03-16T11:54:23.967Z,1.60
2023-03-16T11:55:23.960Z,1.50
2023-03-16T11:56:23.764Z,1.60
2023-03-16T11:57:23.761Z,1.50
2023-03-16T11:58:23.733Z,1.70
2023-03-16T11:59:23.732Z,1.40
2023-03-16T12:00:23.908Z,1.60
2023-03-16T12:01:23.778Z,2.10
2023-03-16T12:02:23.742Z,1.40
2023-03-16T12:03:23.705Z,1.70
2023-03-16T12:04:23.791Z,1.70
2023-03-16T12:05:23.673Z,1.80
2023-03-16T12:06:23.957Z,1.60
2023-03-16T12:07:23.627Z,1.30
2023-03-16T12:08:23.621Z,1.30
2023-03-16T12:09:23.627Z,1.40
2023-03-16T12:10:23.787Z,1.30
2023-03-16T12:11:23.759Z,1.30
2023-03-16T12:12:23.561Z,1.60
2023-03-16T12:13:23.536Z,1.20
2023-03-16T12:14:23.548Z,1.20
2023-03-16T12:15:23.521Z,1.30
2023-03-16T12:16:23.703Z,1.30
2023-03-16T12:17:23.481Z,1.10
2023-03-16T12:18:23.486Z,1.10
2023-03-16T12:19:23.468Z,1.40
2023-03-16T12:20:23.455Z,1.20
2023-03-16T12:21:23.629Z,1.40
2023-03-16T12:22:23.423Z,1.30
2023-03-16T12:23:23.440Z,1.40
2023-03-16T12:24:23.416Z,1.40
2023-03-16T12:25:23.390Z,1.00
2023-03-16T12:26:23.579Z,1.00
2023-03-16T12:27:23.370Z,2.00
2023-03-16T12:28:23.342Z,1.60
2023-03-16T12:29:23.348Z,1.60
2023-03-16T12:30:23.327Z,1.10
2023-03-16T12:31:23.356Z,1.30
2023-03-16T12:32:23.299Z,1.00
2023-03-16T12:33:23.292Z,1.20
2023-03-16T12:34:23.278Z,1.20
2023-03-16T12:35:23.278Z,1.20
2023-03-16T12:36:23.268Z,1.20
2023-03-16T12:37:23.229Z,1.10
2023-03-16T12:38:23.222Z,1.80
2023-03-16T12:39:23.228Z,1.10
2023-03-16T12:40:23.200Z,1.30
2023-03-16T12:41:23.234Z,1.80
2023-03-16T12:42:23.352Z,1.40
2023-03-16T12:43:23.168Z,1.40
2023-03-16T12:44:23.146Z,1.20
2023-03-16T12:45:23.149Z,1.80
2023-03-16T12:46:23.228Z,1.10
2023-03-16T12:47:23.297Z,1.40
2023-03-16T12:48:23.090Z,1.00
2023-03-16T12:49:23.100Z,1.20
2023-03-16T12:50:23.067Z,1.20
2023-03-16T12:51:23.058Z,1.10
2023-03-16T12:52:23.056Z,1.40
2023-03-16T12:53:23.037Z,0.90
2023-03-16T12:54:23.186Z,1.30
2023-03-16T12:55:23.016Z,1.20
2023-03-16T12:56:22.996Z,2.20
2023-03-16T12:57:22.986Z,1.90
2023-03-16T12:58:23.001Z,1.10
2023-03-16T12:59:23.140Z,1.20
2023-03-16T13:00:22.936Z,1.50
2023-03-16T13:01:23.033Z,1.20
2023-03-16T13:02:22.923Z,2.60
2023-03-16T13:03:22.909Z,1.50
2023-03-16T13:04:23.209Z,1.30
2023-03-16T13:05:22.888Z,1.40
2023-03-16T13:06:22.878Z,1.40
2023-03-16T13:07:22.896Z,1.70
2023-03-16T13:08:22.887Z,2.40
2023-03-16T13:09:22.866Z,1.70
2023-03-16T13:10:22.822Z,1.10
2023-03-16T13:11:22.809Z,1.10
2023-03-16T13:12:22.800Z,1.00
2023-03-16T13:13:22.780Z,1.30
2023-03-16T13:14:22.938Z,1.30
2023-03-16T13:15:22.778Z,1.30
2023-03-16T13:16:22.777Z,1.80
2023-03-16T13:17:22.851Z,0.90
2023-03-16T13:18:22.713Z,1.10
2023-03-16T13:19:22.713Z,1.10